Time;durP1;ratioP1;P1;durP2;ratioP2;P2;SDS_P1;SDS_P2;PMS_P1;PMS_P2;Temp;Humidity;BMP_temperature;BMP_pressure;BME280_temperature;BME280_humidity;BME280_pressure;Samples;Min_cycle;Max_cycle;Signal;HPM_P1;HPM_P2
2023/10/04 00:00:14;;;;;;;11.55;2.80;;;13.00;42.70;;;;;;6237731;28;20065;-77
2023/10/04 00:03:16;;;;;;;15.73;2.63;;;12.90;45.30;;;;;;6218792;28;20517;-77
2023/10/04 00:06:17;;;;;;;18.13;3.42;;;12.90;47.40;;;;;;6243541;28;20053;-77
2023/10/04 00:09:19;;;;;;;15.43;3.33;;;12.90;47.80;;;;;;6220502;28;20603;-78
2023/10/04 00:12:21;;;;;;;13.60;3.30;;;12.80;49.60;;;;;;6244751;28;20052;-76
2023/10/04 00:15:26;;;;;;;11.60;2.65;;;12.80;48.90;;;;;;6218625;28;20046;-77
2023/10/04 00:18:28;;;;;;;12.27;2.58;;;12.70;51.60;;;;;;6197067;28;20047;-78
2023/10/04 00:21:29;;;;;;;11.32;2.70;;;12.70;51.90;;;;;;6252454;28;20053;-77
2023/10/04 00:24:31;;;;;;;11.85;2.67;;;12.70;52.90;;;;;;6228420;28;20046;-78
2023/10/04 00:27:33;;;;;;;10.57;2.45;;;12.60;52.80;;;;;;6263025;28;20072;-78
2023/10/04 00:30:35;;;;;;;13.02;2.80;;;12.60;52.80;;;;;;6246734;28;20127;-78
2023/10/04 00:33:38;;;;;;;13.93;2.58;;;12.60;55.00;;;;;;6241203;28;20145;-80
2023/10/04 00:36:39;;;;;;;16.90;3.60;;;12.50;55.20;;;;;;6276141;28;20055;-77
2023/10/04 00:39:41;;;;;;;11.90;2.42;;;12.50;56.30;;;;;;6227137;28;20057;-78
2023/10/04 00:42:44;;;;;;;17.75;3.13;;;12.40;56.10;;;;;;6241384;28;20081;-76
2023/10/04 00:45:48;;;;;;;13.57;2.78;;;12.50;58.90;;;;;;6238854;28;20057;-77
2023/10/04 00:48:49;;;;;;;16.52;3.00;;;12.40;57.90;;;;;;6247275;28;20525;-80
2023/10/04 00:51:51;;;;;;;16.08;2.65;;;12.40;58.30;;;;;;6247201;28;20056;-78
2023/10/04 00:54:54;;;;;;;12.57;2.35;;;12.40;59.60;;;;;;6247008;28;20718;-78
2023/10/04 00:57:55;;;;;;;14.25;2.50;;;12.40;59.30;;;;;;6242927;28;20465;-77
2023/10/04 01:00:57;;;;;;;13.90;2.20;;;12.30;60.20;;;;;;6246806;28;20240;-78
2023/10/04 01:04:00;;;;;;;11.93;2.35;;;12.30;62.00;;;;;;6246538;28;20053;-78
2023/10/04 01:07:04;;;;;;;11.00;2.45;;;12.30;63.50;;;;;;6246382;28;20191;-77
2023/10/04 01:10:06;;;;;;;12.70;2.22;;;12.30;64.00;;;;;;6246699;28;20057;-76
2023/10/04 01:13:09;;;;;;;11.60;2.20;;;12.20;64.10;;;;;;6243962;28;20425;-76
2023/10/04 01:16:12;;;;;;;9.13;1.88;;;12.20;64.10;;;;;;6246579;28;20088;-77
2023/10/04 01:19:15;;;;;;;6.88;1.73;;;12.10;64.00;;;;;;6246409;28;20045;-76
2023/10/04 01:22:17;;;;;;;12.63;2.80;;;12.10;64.30;;;;;;6245956;28;20053;-79
2023/10/04 01:25:19;;;;;;;10.55;1.85;;;12.10;64.80;;;;;;6245876;28;20050;-76
2023/10/04 01:28:27;;;;;;;7.68;2.00;;;12.00;66.20;;;;;;6242230;28;20045;-77
2023/10/04 01:31:29;;;;;;;12.25;2.30;;;12.00;66.20;;;;;;6221458;28;20057;-76
2023/10/04 01:34:31;;;;;;;10.98;2.17;;;12.00;66.80;;;;;;6242517;28;20061;-77
2023/10/04 01:37:34;;;;;;;12.57;2.15;;;12.00;67.00;;;;;;6245281;28;20057;-78
2023/10/04 01:40:38;;;;;;;11.05;1.75;;;12.00;66.00;;;;;;6245511;28;20092;-77
2023/10/04 01:43:40;;;;;;;15.00;2.17;;;12.00;66.60;;;;;;6244713;28;20057;-77
2023/10/04 01:46:42;;;;;;;20.27;3.15;;;11.90;66.60;;;;;;6245097;28;20054;-77
2023/10/04 01:49:44;;;;;;;13.57;2.42;;;11.90;68.40;;;;;;6245700;28;20061;-77
2023/10/04 01:52:46;;;;;;;7.93;1.85;;;11.90;68.40;;;;;;6227347;28;20057;-76
2023/10/04 01:55:47;;;;;;;12.95;2.13;;;11.90;68.90;;;;;;6245303;28;20060;-77
2023/10/04 01:58:49;;;;;;;13.35;2.00;;;11.90;68.20;;;;;;6236953;28;20057;-77
2023/10/04 02:01:50;;;;;;;13.45;1.92;;;11.90;67.70;;;;;;6245122;28;20061;-76
2023/10/04 02:04:53;;;;;;;13.38;2.10;;;11.90;68.70;;;;;;6244588;28;20168;-77
2023/10/04 02:07:56;;;;;;;12.35;2.15;;;11.80;69.40;;;;;;6243147;28;20057;-77
2023/10/04 02:10:58;;;;;;;10.02;2.28;;;11.80;69.50;;;;;;6244737;28;20045;-77
2023/10/04 02:14:00;;;;;;;12.35;2.05;;;11.80;68.70;;;;;;6236968;28;20056;-77
2023/10/04 02:17:03;;;;;;;15.52;1.92;;;11.80;68.50;;;;;;6244866;28;20071;-77
2023/10/04 02:20:09;;;;;;;9.07;1.60;;;11.90;69.30;;;;;;6244865;28;20117;-77
2023/10/04 02:23:11;;;;;;;13.00;2.00;;;11.90;69.40;;;;;;6227111;28;20076;-77
2023/10/04 02:26:13;;;;;;;13.20;2.05;;;11.90;69.20;;;;;;6244447;28;20420;-77
2023/10/04 02:29:15;;;;;;;15.07;1.95;;;11.90;69.50;;;;;;6240211;28;20563;-77
2023/10/04 02:32:16;;;;;;;16.65;2.08;;;11.90;69.10;;;;;;6244321;28;20130;-77
2023/10/04 02:35:28;;;;;;;13.68;2.13;;;11.90;69.20;;;;;;6244041;28;20060;-77
2023/10/04 02:38:34;;;;;;;10.80;2.10;;;11.90;70.40;;;;;;6219900;28;20049;-76
2023/10/04 02:41:36;;;;;;;9.55;1.60;;;11.90;69.30;;;;;;6219921;28;20135;-77
2023/10/04 02:44:37;;;;;;;9.82;1.58;;;11.90;69.80;;;;;;6240933;28;20155;-77
2023/10/04 02:47:39;;;;;;;14.75;2.75;;;11.90;70.70;;;;;;6244053;28;20057;-76
2023/10/04 02:50:41;;;;;;;7.25;1.63;;;12.00;70.40;;;;;;6243949;28;20394;-76
2023/10/04 02:53:43;;;;;;;13.85;1.88;;;12.00;69.80;;;;;;6244277;28;20053;-77
2023/10/04 02:56:46;;;;;;;8.43;1.35;;;12.00;70.70;;;;;;6243896;28;20481;-77
2023/10/04 02:59:47;;;;;;;12.70;2.08;;;12.00;69.60;;;;;;6237867;28;20049;-77
2023/10/04 03:02:50;;;;;;;10.02;1.70;;;12.00;70.20;;;;;;6243640;28;20171;-75
2023/10/04 03:05:53;;;;;;;11.38;1.65;;;12.00;70.20;;;;;;6243657;28;20049;-77
2023/10/04 03:08:56;;;;;;;12.88;2.28;;;12.00;69.50;;;;;;6242073;28;20053;-77
2023/10/04 03:11:58;;;;;;;11.48;1.83;;;12.00;70.20;;;;;;6243516;28;20492;-76
2023/10/04 03:14:59;;;;;;;8.10;1.88;;;12.00;69.50;;;;;;6239295;28;20065;-77
2023/10/04 03:18:13;;;;;;;11.35;1.75;;;12.00;69.70;;;;;;6243372;28;20075;-77
2023/10/04 03:21:20;;;;;;;16.67;2.20;;;11.90;69.80;;;;;;6243951;28;20205;-76
2023/10/04 03:24:21;;;;;;;8.52;1.58;;;11.90;69.30;;;;;;6219514;28;20405;-76
2023/10/04 03:27:24;;;;;;;8.07;1.40;;;11.90;70.50;;;;;;6242739;28;20053;-76
2023/10/04 03:30:26;;;;;;;9.20;1.90;;;12.00;69.80;;;;;;6240169;28;20056;-77
2023/10/04 03:33:28;;;;;;;11.75;2.35;;;11.90;69.80;;;;;;6219055;28;20168;-77
2023/10/04 03:36:29;;;;;;;9.82;1.80;;;11.90;70.20;;;;;;6242740;28;20505;-77
2023/10/04 03:39:32;;;;;;;16.05;2.03;;;11.90;69.60;;;;;;6243199;28;20049;-76
2023/10/04 03:42:34;;;;;;;12.35;1.50;;;11.80;70.90;;;;;;6240839;28;20053;-76
2023/10/04 03:45:35;;;;;;;10.23;1.65;;;11.90;70.10;;;;;;6241003;28;20536;-77
2023/10/04 03:48:37;;;;;;;15.00;2.42;;;11.80;70.50;;;;;;6243068;28;20095;-77
2023/10/04 03:51:39;;;;;;;12.70;1.88;;;11.80;70.00;;;;;;6243163;28;20096;-77
2023/10/04 03:54:44;;;;;;;12.30;1.98;;;11.90;70.00;;;;;;6243456;28;20135;-76
2023/10/04 03:57:47;;;;;;;12.38;1.95;;;11.90;70.10;;;;;;6222293;28;20045;-74
2023/10/04 04:00:50;;;;;;;14.18;1.60;;;11.90;68.90;;;;;;6245670;28;20053;-77
2023/10/04 04:03:52;;;;;;;7.93;1.35;;;12.00;69.50;;;;;;6247543;28;20057;-77
2023/10/04 04:06:54;;;;;;;11.00;1.73;;;12.00;69.20;;;;;;6226896;28;20066;-77
2023/10/04 04:09:55;;;;;;;12.48;1.67;;;12.00;69.00;;;;;;6247624;28;20064;-78
2023/10/04 04:13:01;;;;;;;13.95;2.53;;;12.00;68.70;;;;;;6247621;28;20050;-76
2023/10/04 04:16:09;;;;;;;8.70;1.95;;;12.00;68.80;;;;;;6247770;28;20056;-78
2023/10/04 04:19:11;;;;;;;9.77;1.87;;;11.90;68.20;;;;;;6248183;28;20057;-78
2023/10/04 04:22:17;;;;;;;8.68;1.63;;;11.90;68.40;;;;;;6247405;28;20064;-76
2023/10/04 04:25:19;;;;;;;14.38;1.60;;;11.90;68.30;;;;;;6223106;28;20140;-78
2023/10/04 04:28:21;;;;;;;11.50;1.77;;;11.90;68.90;;;;;;6244912;28;20053;-76
2023/10/04 04:31:23;;;;;;;13.43;2.10;;;11.80;68.50;;;;;;6247414;28;20053;-76
2023/10/04 04:34:25;;;;;;;6.82;1.70;;;11.80;69.70;;;;;;6229451;28;20045;-78
2023/10/04 04:37:29;;;;;;;11.65;1.80;;;11.80;68.80;;;;;;6247106;28;20053;-77
2023/10/04 04:40:31;;;;;;;11.50;2.08;;;11.80;69.30;;;;;;6246963;28;20081;-78
2023/10/04 04:43:36;;;;;;;11.45;2.20;;;11.80;69.00;;;;;;6244332;28;20053;-78
2023/10/04 04:46:39;;;;;;;8.15;1.70;;;11.80;68.60;;;;;;6221948;28;20061;-79
2023/10/04 04:49:40;;;;;;;11.70;1.73;;;11.80;69.30;;;;;;6228561;28;20065;-78
2023/10/04 04:52:42;;;;;;;9.25;1.48;;;11.80;68.70;;;;;;6246524;28;20080;-78
2023/10/04 04:55:44;;;;;;;13.10;2.17;;;11.80;67.60;;;;;;6245292;28;20057;-78
2023/10/04 04:58:49;;;;;;;17.15;2.30;;;11.70;67.30;;;;;;6240167;28;20056;-78
2023/10/04 05:01:53;;;;;;;9.82;1.50;;;11.70;67.40;;;;;;6246623;28;20057;-78
2023/10/04 05:04:55;;;;;;;11.88;2.45;;;11.70;67.30;;;;;;6247584;28;20081;-78
2023/10/04 05:07:56;;;;;;;17.33;2.35;;;11.70;67.30;;;;;;6271114;28;20537;-77
2023/10/04 05:10:59;;;;;;;9.98;2.35;;;11.60;67.60;;;;;;6246583;28;20053;-78
2023/10/04 05:14:02;;;;;;;18.63;2.65;;;11.50;68.30;;;;;;6239994;28;20049;-78
2023/10/04 05:17:07;;;;;;;10.70;1.88;;;11.50;68.30;;;;;;6221562;28;20054;-78
2023/10/04 05:20:13;;;;;;;8.32;2.30;;;11.50;68.20;;;;;;6245238;28;20077;-78
2023/10/04 05:23:15;;;;;;;10.65;2.20;;;11.50;68.10;;;;;;6221932;28;20077;-79
2023/10/04 05:26:18;;;;;;;11.27;1.80;;;11.50;68.70;;;;;;6245319;28;20117;-78
2023/10/04 05:29:20;;;;;;;8.32;2.00;;;11.40;69.30;;;;;;6243429;28;20057;-78
2023/10/04 05:32:22;;;;;;;9.32;1.58;;;11.30;68.90;;;;;;6245021;28;20200;-78
2023/10/04 05:35:23;;;;;;;20.00;2.78;;;11.40;69.60;;;;;;6245596;28;20060;-77
2023/10/04 05:38:25;;;;;;;15.85;2.47;;;11.30;69.30;;;;;;6221535;28;20057;-78
2023/10/04 05:41:31;;;;;;;9.65;1.60;;;11.40;70.50;;;;;;6244779;28;20072;-78
2023/10/04 05:44:33;;;;;;;11.40;1.95;;;11.50;70.40;;;;;;6237754;28;20464;-78
2023/10/04 05:47:34;;;;;;;11.00;1.48;;;11.50;69.70;;;;;;6220950;28;20053;-78
2023/10/04 05:50:36;;;;;;;10.63;1.63;;;11.50;70.50;;;;;;6244892;28;20053;-78
2023/10/04 05:53:38;;;;;;;10.05;1.55;;;11.60;71.10;;;;;;6220948;28;20536;-79
2023/10/04 05:56:40;;;;;;;10.70;2.05;;;11.70;70.70;;;;;;6220212;28;20466;-78
2023/10/04 05:59:42;;;;;;;8.70;1.80;;;11.70;70.50;;;;;;6218468;28;20058;-78
2023/10/04 06:02:44;;;;;;;8.02;1.55;;;11.90;70.10;;;;;;6244647;28;20056;-78
2023/10/04 06:05:46;;;;;;;12.85;2.13;;;11.90;68.90;;;;;;6219273;28;20731;-78
2023/10/04 06:08:47;;;;;;;14.95;1.67;;;11.90;69.30;;;;;;6244088;28;20500;-78
2023/10/04 06:11:49;;;;;;;21.42;2.70;;;12.00;68.70;;;;;;6220540;28;20068;-78
2023/10/04 06:14:52;;;;;;;19.17;2.28;;;12.00;67.70;;;;;;6240163;28;20064;-78
2023/10/04 06:17:56;;;;;;;13.40;1.63;;;12.00;67.80;;;;;;6220333;28;20050;-78
2023/10/04 06:21:01;;;;;;;12.68;1.60;;;12.00;67.60;;;;;;6243093;28;20405;-78
2023/10/04 06:24:03;;;;;;;16.75;2.72;;;12.00;66.90;;;;;;6219898;28;20399;-78
2023/10/04 06:27:05;;;;;;;10.65;1.80;;;12.00;66.60;;;;;;6243426;28;20055;-78
2023/10/04 06:30:06;;;;;;;13.38;1.70;;;12.10;66.40;;;;;;6216803;28;20089;-78
2023/10/04 06:33:08;;;;;;;4.75;1.23;;;12.10;66.20;;;;;;6243892;28;20057;-78
2023/10/04 06:36:10;;;;;;;14.65;1.50;;;12.10;65.90;;;;;;6220240;28;20414;-78
2023/10/04 06:39:14;;;;;;;14.82;2.42;;;12.10;65.80;;;;;;6244069;28;20114;-79
2023/10/04 06:42:16;;;;;;;11.30;1.77;;;12.20;65.20;;;;;;6217944;28;20084;-79
2023/10/04 06:45:18;;;;;;;7.07;1.55;;;12.20;65.00;;;;;;6231212;28;20058;-78
2023/10/04 06:48:19;;;;;;;8.85;1.77;;;12.30;65.00;;;;;;6226140;28;20068;-77
2023/10/04 06:51:21;;;;;;;11.02;1.60;;;12.30;64.20;;;;;;6219923;28;20072;-78
2023/10/04 06:54:23;;;;;;;8.18;1.63;;;12.30;64.20;;;;;;6242980;28;20068;-78
2023/10/04 06:57:25;;;;;;;9.65;1.58;;;12.40;64.30;;;;;;6217374;28;20052;-79
2023/10/04 07:00:30;;;;;;;9.50;1.40;;;12.50;63.90;;;;;;6237444;28;20409;-77
2023/10/04 07:03:32;;;;;;;13.18;2.28;;;12.50;62.60;;;;;;6194742;28;20403;-78
2023/10/04 07:06:34;;;;;;;12.63;1.70;;;12.60;62.70;;;;;;6216949;28;20050;-79
2023/10/04 07:09:36;;;;;;;9.63;1.55;;;12.70;61.90;;;;;;6242799;28;20139;-80
2023/10/04 07:12:38;;;;;;;8.40;1.58;;;12.70;61.30;;;;;;6221688;28;20057;-79
2023/10/04 07:15:41;;;;;;;7.20;1.73;;;12.80;60.00;;;;;;6238242;28;20049;-79
2023/10/04 07:18:44;;;;;;;7.70;1.45;;;12.90;59.20;;;;;;6194828;28;20151;-78
2023/10/04 07:21:46;;;;;;;10.50;1.60;;;13.00;58.00;;;;;;6218405;28;20064;-79
2023/10/04 07:24:48;;;;;;;7.93;1.50;;;13.20;57.40;;;;;;6242776;28;20053;-79
2023/10/04 07:27:51;;;;;;;4.20;1.05;;;13.30;55.20;;;;;;6219182;28;20049;-81
2023/10/04 07:30:54;;;;;;;12.27;1.65;;;13.50;53.90;;;;;;6225711;28;20166;-80
2023/10/04 07:33:56;;;;;;;11.23;1.73;;;13.70;51.50;;;;;;6197592;28;20054;-78
2023/10/04 07:36:58;;;;;;;9.50;1.60;;;13.80;51.10;;;;;;6223075;28;20145;-80
2023/10/04 07:39:59;;;;;;;11.75;1.70;;;14.00;49.70;;;;;;6223401;28;20050;-79
2023/10/04 07:43:01;;;;;;;9.27;1.85;;;14.20;47.40;;;;;;6240087;28;20064;-78
2023/10/04 07:46:05;;;;;;;10.05;1.60;;;14.40;46.00;;;;;;6238397;28;20505;-76
2023/10/04 07:49:06;;;;;;;14.23;1.80;;;14.50;39.40;;;;;;6222683;28;20054;-77
2023/10/04 07:52:09;;;;;;;8.00;1.25;;;14.70;42.70;;;;;;6246693;28;20045;-77
2023/10/04 07:55:17;;;;;;;8.57;1.58;;;15.00;43.50;;;;;;6221479;28;20057;-78
2023/10/04 07:58:19;;;;;;;22.58;3.30;;;15.30;39.40;;;;;;6237047;28;20530;-78
2023/10/04 08:01:21;;;;;;;7.10;1.42;;;15.50;37.70;;;;;;6246455;28;20057;-78
2023/10/04 08:04:23;;;;;;;9.93;1.45;;;15.40;32.40;;;;;;6223135;28;20692;-78
2023/10/04 08:07:26;;;;;;;5.93;1.30;;;15.20;34.30;;;;;;6220452;28;20115;-77
2023/10/04 08:10:29;;;;;;;9.77;1.70;;;15.30;33.10;;;;;;6247214;28;20148;-78
2023/10/04 08:13:30;;;;;;;7.45;1.92;;;15.10;37.30;;;;;;6230984;28;20060;-78
2023/10/04 08:16:33;;;;;;;7.05;1.45;;;15.10;36.90;;;;;;6221990;28;20092;-76
2023/10/04 08:19:35;;;;;;;9.43;1.65;;;15.20;34.30;;;;;;6246491;28;20096;-76
2023/10/04 08:22:38;;;;;;;6.18;1.10;;;15.20;34.50;;;;;;6223045;28;20084;-77
2023/10/04 08:25:39;;;;;;;8.23;1.35;;;15.20;30.60;;;;;;6245033;28;20417;-76
2023/10/04 08:28:42;;;;;;;7.55;1.20;;;15.30;32.70;;;;;;6228372;28;20057;-79
2023/10/04 08:31:43;;;;;;;6.15;1.52;;;15.40;35.10;;;;;;6223107;28;20076;-83
2023/10/04 08:34:45;;;;;;;6.43;1.23;;;15.70;31.90;;;;;;6247583;28;20053;-84
2023/10/04 08:37:48;;;;;;;10.80;2.22;;;15.70;26.90;;;;;;6224413;28;20076;-80
2023/10/04 08:40:50;;;;;;;9.20;1.30;;;15.70;29.40;;;;;;6246357;28;20049;-78
2023/10/04 08:43:51;;;;;;;7.45;1.88;;;15.90;29.50;;;;;;6228098;28;20049;-87
2023/10/04 08:46:55;;;;;;;6.30;1.30;;;15.90;28.50;;;;;;6253291;28;20061;-78
2023/10/04 08:49:57;;;;;;;5.20;1.20;;;15.90;26.00;;;;;;6250112;28;20045;-80
2023/10/04 08:52:59;;;;;;;9.05;1.30;;;16.00;26.30;;;;;;6247956;28;20445;-81
2023/10/04 08:56:01;;;;;;;6.80;1.23;;;16.00;25.90;;;;;;6230118;28;20516;-78
2023/10/04 08:59:03;;;;;;;7.40;1.35;;;16.20;23.90;;;;;;6224633;28;20068;-82
2023/10/04 09:02:07;;;;;;;6.22;1.27;;;16.60;23.10;;;;;;6231991;28;20508;-80
2023/10/04 09:05:10;;;;;;;7.78;1.45;;;16.80;20.20;;;;;;6245657;28;20056;-79
2023/10/04 09:08:11;;;;;;;5.47;1.27;;;17.10;20.70;;;;;;6248229;28;20064;-80
2023/10/04 09:11:15;;;;;;;8.30;1.95;;;17.20;13.70;;;;;;6248072;28;20057;-83
2023/10/04 09:14:17;;;;;;;8.45;1.92;;;17.80;11.90;;;;;;6241760;28;20057;-84
2023/10/04 09:17:21;;;;;;;6.75;1.45;;;17.90;16.10;;;;;;6251461;28;20049;-79
2023/10/04 09:20:23;;;;;;;5.88;1.33;;;17.80;17.60;;;;;;6249435;28;20049;-82
2023/10/04 09:23:25;;;;;;;10.82;1.60;;;17.80;11.10;;;;;;6227892;28;20054;-84
2023/10/04 09:26:27;;;;;;;9.05;1.52;;;18.20;12.90;;;;;;6267587;28;20063;-83
2023/10/04 09:29:29;;;;;;;8.70;1.88;;;18.60;8.60;;;;;;6265115;28;20060;-81
2023/10/04 09:32:31;;;;;;;6.45;1.20;;;18.50;1.00;;;;;;6260679;28;20049;-80
2023/10/04 09:35:33;;;;;;;4.78;1.38;;;18.40;3.20;;;;;;6235395;28;20057;-77
2023/10/04 09:38:35;;;;;;;7.20;1.38;;;18.50;1.00;;;;;;6246092;28;20428;-76
2023/10/04 09:41:37;;;;;;;7.78;1.55;;;18.40;1.00;;;;;;6245216;28;20064;-78
2023/10/04 09:44:39;;;;;;;5.55;1.13;;;18.10;1.00;;;;;;6245043;28;20132;-77
2023/10/04 09:47:40;;;;;;;7.85;1.50;;;17.90;2.50;;;;;;6245557;28;20057;-77
2023/10/04 09:50:42;;;;;;;7.78;1.52;;;18.00;1.00;;;;;;6244823;28;20111;-78
2023/10/04 09:53:44;;;;;;;5.65;1.52;;;18.10;1.00;;;;;;6245254;28;20049;-78
2023/10/04 09:56:47;;;;;;;7.97;1.83;;;18.30;1.00;;;;;;6226049;28;20113;-78
2023/10/04 09:59:49;;;;;;;4.95;0.95;;;18.60;1.00;;;;;;6242504;28;20049;-83
2023/10/04 10:02:51;;;;;;;10.70;1.33;;;18.60;1.00;;;;;;6245236;28;20057;-78
2023/10/04 10:05:52;;;;;;;5.32;1.20;;;18.60;1.00;;;;;;6243219;28;20068;-78
2023/10/04 10:08:54;;;;;;;3.85;1.02;;;18.90;1.00;;;;;;6244659;28;20070;-80
2023/10/04 10:11:57;;;;;;;3.95;1.27;;;19.20;1.00;;;;;;6244809;28;20061;-77
2023/10/04 10:15:02;;;;;;;4.68;1.40;;;19.60;1.00;;;;;;6220044;28;20058;-83
2023/10/04 10:18:04;;;;;;;6.05;1.30;;;19.90;1.00;;;;;;6234649;28;20066;-78
2023/10/04 10:21:08;;;;;;;7.45;1.45;;;20.10;1.00;;;;;;6246228;28;20056;-76
2023/10/04 10:24:10;;;;;;;15.93;1.88;;;20.40;1.00;;;;;;6244245;28;20049;-76
2023/10/04 10:27:11;;;;;;;6.47;1.10;;;20.20;1.00;;;;;;6244540;28;20046;-78
2023/10/04 10:30:13;;;;;;;4.57;1.38;;;20.60;1.00;;;;;;6237058;28;20057;-82
2023/10/04 10:33:15;;;;;;;9.75;1.73;;;20.70;1.00;;;;;;6245166;28;20045;-81
2023/10/04 10:36:17;;;;;;;6.40;1.27;;;20.70;1.00;;;;;;6244172;28;20041;-74
2023/10/04 10:39:20;;;;;;;3.45;1.50;;;20.80;1.00;;;;;;6245479;28;20056;-82
2023/10/04 10:42:22;;;;;;;6.07;1.40;;;21.20;1.00;;;;;;6243245;28;20079;-76
2023/10/04 10:45:24;;;;;;;5.50;1.38;;;21.80;1.00;;;;;;6240202;28;20473;-75
2023/10/04 10:48:26;;;;;;;6.38;1.75;;;22.60;1.00;;;;;;6243996;28;20215;-77
2023/10/04 10:51:28;;;;;;;4.55;1.10;;;23.00;1.00;;;;;;6245025;28;20068;-76
2023/10/04 10:54:31;;;;;;;7.10;1.55;;;23.00;1.00;;;;;;6244487;28;20148;-76
2023/10/04 10:57:35;;;;;;;5.47;1.88;;;23.30;1.00;;;;;;6244194;28;20045;-78
2023/10/04 11:00:37;;;;;;;5.65;1.35;;;23.50;1.00;;;;;;6240972;28;20050;-79
2023/10/04 11:03:40;;;;;;;3.97;1.17;;;23.40;1.00;;;;;;6219900;28;20141;-76
2023/10/04 11:06:43;;;;;;;8.27;1.35;;;23.30;1.00;;;;;;6228547;28;20054;-82
2023/10/04 11:09:45;;;;;;;8.48;1.63;;;23.30;1.00;;;;;;6225890;28;20050;-77
2023/10/04 11:12:51;;;;;;;6.68;1.60;;;23.60;1.00;;;;;;6239967;28;20098;-76
2023/10/04 11:15:52;;;;;;;4.60;1.25;;;23.50;1.00;;;;;;6243430;28;20053;-75
2023/10/04 11:18:54;;;;;;;3.90;1.20;;;23.00;1.00;;;;;;6243378;28;20081;-76
2023/10/04 11:21:57;;;;;;;7.10;1.40;;;22.70;1.00;;;;;;6243659;28;20054;-75
2023/10/04 11:24:58;;;;;;;5.68;1.30;;;22.80;1.00;;;;;;6243430;28;20139;-76
2023/10/04 11:28:00;;;;;;;6.45;1.30;;;23.00;1.00;;;;;;6240853;28;20052;-76
2023/10/04 11:31:02;;;;;;;3.75;1.30;;;22.90;1.00;;;;;;6243501;28;20152;-79
2023/10/04 11:34:04;;;;;;;6.47;1.30;;;22.50;1.00;;;;;;6225253;28;20049;-78
2023/10/04 11:37:07;;;;;;;6.70;1.30;;;22.00;1.00;;;;;;6242905;28;20562;-78
2023/10/04 11:40:12;;;;;;;5.95;1.02;;;21.80;1.00;;;;;;6244764;28;20057;-78
2023/10/04 11:46:58;;;;;;;5.15;1.33;;;22.70;1.00;;;;;;5869335;28;20053;-78
2023/10/04 11:50:01;;;;;;;7.38;1.27;;;22.40;1.00;;;;;;6194669;28;20050;-79
2023/10/04 11:53:03;;;;;;;9.50;1.40;;;22.80;1.00;;;;;;6194386;28;20599;-79
2023/10/04 11:56:08;;;;;;;6.00;1.15;;;22.70;1.00;;;;;;6218055;28;20136;-78
2023/10/04 11:59:10;;;;;;;6.30;1.30;;;22.00;1.00;;;;;;6207271;28;20061;-79
2023/10/04 12:02:13;;;;;;;4.38;1.20;;;22.00;1.00;;;;;;6194338;28;20051;-80
2023/10/04 12:05:15;;;;;;;5.10;1.40;;;21.90;1.00;;;;;;6218087;28;20054;-78
2023/10/04 12:08:19;;;;;;;3.45;1.10;;;21.90;1.00;;;;;;6192935;28;20128;-80
2023/10/04 12:11:25;;;;;;;4.15;1.30;;;21.90;1.00;;;;;;6218264;28;20058;-79
2023/10/04 12:14:27;;;;;;;4.13;1.42;;;22.30;1.00;;;;;;6215336;28;20912;-80
2023/10/04 12:17:29;;;;;;;3.70;1.10;;;23.00;1.00;;;;;;6218398;28;20624;-80
2023/10/04 12:20:36;;;;;;;6.20;1.52;;;23.50;1.00;;;;;;6197178;28;20054;-80
2023/10/04 12:23:37;;;;;;;3.67;1.20;;;22.80;1.00;;;;;;6198599;28;20414;-80
2023/10/04 12:26:39;;;;;;;3.58;1.10;;;22.50;1.00;;;;;;6222258;28;20053;-79
2023/10/04 12:29:41;;;;;;;5.20;1.23;;;22.60;1.00;;;;;;6194147;28;20433;-80
2023/10/04 12:32:43;;;;;;;3.95;1.10;;;23.60;1.00;;;;;;6221626;28;20049;-79
2023/10/04 12:35:45;;;;;;;8.70;1.83;;;24.00;1.00;;;;;;6196860;28;20061;-80
2023/10/04 12:38:47;;;;;;;5.38;1.40;;;24.20;1.00;;;;;;6221511;28;20053;-79
2023/10/04 12:41:49;;;;;;;4.70;1.08;;;23.30;1.00;;;;;;6198074;28;20454;-78
2023/10/04 12:44:51;;;;;;;8.15;1.70;;;22.40;1.00;;;;;;6219007;28;20141;-77
2023/10/04 12:47:56;;;;;;;3.78;1.25;;;21.90;1.00;;;;;;6247229;28;20056;-78
2023/10/04 12:51:02;;;;;;;4.68;1.30;;;22.10;1.00;;;;;;6246866;28;20587;-78
2023/10/04 12:54:03;;;;;;;3.03;1.00;;;22.00;1.00;;;;;;6248296;28;20060;-78
2023/10/04 12:57:06;;;;;;;4.50;1.30;;;21.40;1.00;;;;;;6246573;28;20536;-77
2023/10/04 13:00:15;;;;;;;3.75;1.17;;;21.00;1.00;;;;;;6241865;28;20688;-78
2023/10/04 13:03:17;;;;;;;5.00;1.20;;;20.90;1.00;;;;;;6221660;28;20057;-79
2023/10/04 13:06:19;;;;;;;3.33;1.25;;;20.80;1.00;;;;;;6245588;28;20088;-78
2023/10/04 13:09:26;;;;;;;4.45;1.20;;;20.80;1.00;;;;;;6246094;28;20065;-78
2023/10/04 13:12:27;;;;;;;5.15;1.20;;;20.90;1.00;;;;;;6222132;28;20060;-79
2023/10/04 13:15:29;;;;;;;5.10;1.05;;;20.60;1.00;;;;;;6241909;28;20175;-77
2023/10/04 13:18:32;;;;;;;4.68;1.30;;;20.50;1.00;;;;;;6221693;28;20064;-76
2023/10/04 13:21:34;;;;;;;4.97;1.30;;;20.40;1.00;;;;;;6245941;28;20060;-80
2023/10/04 13:24:37;;;;;;;7.20;1.30;;;20.40;1.00;;;;;;6246063;28;20045;-80
2023/10/04 13:27:39;;;;;;;6.53;1.30;;;20.60;1.00;;;;;;6246285;28;20080;-88
2023/10/04 13:30:41;;;;;;;8.05;1.50;;;20.80;1.00;;;;;;6245993;28;20045;-79
2023/10/04 13:33:43;;;;;;;5.00;1.25;;;21.20;1.00;;;;;;6224246;28;20056;-83
2023/10/04 13:36:45;;;;;;;4.07;1.02;;;21.20;1.00;;;;;;6244744;28;20049;-79
2023/10/04 13:39:47;;;;;;;5.53;1.38;;;20.70;1.00;;;;;;6245698;28;20603;-84
2023/10/04 13:42:50;;;;;;;6.47;1.42;;;20.50;1.00;;;;;;6236999;28;20547;-80
